Lauderdale Isles, Florida
Current Conditions -  °F | °C
As of 11:53 PM on Friday 28 Nov 2014 (Local Time) from KFLL Reporting Station
Few Clouds Few Clouds  
Wind Chill: 57°   Ceiling: Unl
Heat Index: 57°   Visibility: 10mi
Dew Point: 50°   Wind: 9mph
Humidity: 77%   Direction: 330°NNW
Pressure: 30.19"   Gusts: NA
Location:  26.0861°N, 80.1822°W
Report Text: KFLL 290453Z 33008KT 10SM FEW045 14/10 A3019 RMK AO2 SLP222 T01390100 402220111
Loading
Personal Weather Stations






























Interactive Weather Map New forecast layout! Learn more

10-Day Weather Forecast

Advertisements
Track Severe Weather on mobile